Time;durP1;ratioP1;P1;durP2;ratioP2;P2;SDS_P1;SDS_P2;PMS_P1;PMS_P2;Temp;Humidity;BMP_temperature;BMP_pressure;BME280_temperature;BME280_humidity;BME280_pressure;Samples;Min_cycle;Max_cycle;Signal;HPM_P1;HPM_P2
2021/11/13 00:01:04;;;;;;;8.25;4.60;;;4.80;99.90;;;;;;5039552;28;20029;-67
2021/11/13 00:03:32;;;;;;;8.00;5.13;;;4.70;99.90;;;;;;5041443;28;20045;-67
2021/11/13 00:06:01;;;;;;;10.27;5.60;;;4.60;99.90;;;;;;5049159;28;20128;-68
2021/11/13 00:08:27;;;;;;;9.50;5.60;;;4.60;99.90;;;;;;5044915;28;20123;-67
2021/11/13 00:10:53;;;;;;;12.35;5.35;;;4.60;99.90;;;;;;5039440;28;20461;-67
2021/11/13 00:13:21;;;;;;;7.25;4.32;;;4.80;99.90;;;;;;5040136;28;20048;-67
2021/11/13 00:15:46;;;;;;;10.20;5.00;;;5.00;99.90;;;;;;5045397;28;20037;-68
2021/11/13 00:18:12;;;;;;;7.40;4.32;;;5.20;99.90;;;;;;5053405;28;20084;-68
2021/11/13 00:20:38;;;;;;;12.93;5.22;;;5.40;99.90;;;;;;5048267;28;20045;-67
2021/11/13 00:23:03;;;;;;;14.13;5.60;;;5.50;99.90;;;;;;5048655;28;20048;-68
2021/11/13 00:25:29;;;;;;;;;;;5.60;99.90;;;;;;5043751;28;20124;-67
2021/11/13 00:27:54;;;;;;;8.77;5.28;;;5.70;99.90;;;;;;5022092;28;20015;-68
2021/11/13 00:30:21;;;;;;;10.60;5.07;;;5.70;99.90;;;;;;5027336;28;20094;-67
2021/11/13 00:32:46;;;;;;;11.52;5.40;;;5.70;99.90;;;;;;5028918;28;20041;-67
2021/11/13 00:35:13;;;;;;;9.65;5.13;;;5.80;99.90;;;;;;5029032;28;20044;-68
2021/11/13 00:37:39;;;;;;;10.38;5.53;;;5.80;99.90;;;;;;5028257;28;20042;-67
2021/11/13 00:40:07;;;;;;;7.93;4.55;;;5.80;99.90;;;;;;5028674;28;20057;-67
2021/11/13 00:42:33;;;;;;;11.07;5.25;;;5.80;99.90;;;;;;5029696;28;20090;-67
2021/11/13 00:44:58;;;;;;;12.13;5.15;;;5.80;99.90;;;;;;5028772;28;20042;-67
2021/11/13 00:47:24;;;;;;;16.85;6.22;;;5.90;99.90;;;;;;5027620;28;20143;-66
2021/11/13 00:49:50;;;;;;;13.23;6.47;;;5.90;99.90;;;;;;5046950;28;20061;-67
2021/11/13 00:52:16;;;;;;;;;;;5.90;99.90;;;;;;5049135;28;20145;-67
2021/11/13 00:54:41;;;;;;;9.02;5.25;;;5.90;99.90;;;;;;5048954;28;19916;-66
2021/11/13 00:57:08;;;;;;;;;;;6.00;99.90;;;;;;5028776;28;20037;-66
2021/11/13 00:59:34;;;;;;;9.43;4.63;;;6.00;99.90;;;;;;5028473;28;19917;-66
2021/11/13 01:02:00;;;;;;;9.73;4.93;;;6.00;99.90;;;;;;5027482;28;20044;-67
2021/11/13 01:04:26;;;;;;;8.18;4.18;;;6.00;99.90;;;;;;5028759;28;20041;-66
2021/11/13 01:06:51;;;;;;;6.90;4.05;;;5.90;99.90;;;;;;5027982;28;20053;-66
2021/11/13 01:09:18;;;;;;;9.13;4.63;;;5.80;99.90;;;;;;5026844;28;20091;-66
2021/11/13 01:11:44;;;;;;;7.93;4.68;;;5.80;99.90;;;;;;5048318;28;20645;-67
2021/11/13 01:14:10;;;;;;;8.75;5.20;;;5.80;99.90;;;;;;5048823;28;20799;-67
2021/11/13 01:16:36;;;;;;;5.53;3.78;;;6.00;99.90;;;;;;5046894;28;20056;-66
2021/11/13 01:19:01;;;;;;;;;;;6.20;99.90;;;;;;5048545;28;20047;-67
2021/11/13 01:21:27;;;;;;;9.57;4.25;;;6.30;99.90;;;;;;5047741;28;19998;-67
2021/11/13 01:23:53;;;;;;;8.20;3.67;;;6.30;99.90;;;;;;5048447;28;20041;-67
2021/11/13 01:26:19;;;;;;;;;;;6.40;99.90;;;;;;5035575;28;20648;-67
2021/11/13 01:28:44;;;;;;;6.55;3.40;;;6.50;99.90;;;;;;5009886;28;20308;-67
2021/11/13 01:31:10;;;;;;;6.93;3.28;;;6.60;99.90;;;;;;5028970;28;20044;-67
2021/11/13 01:33:36;;;;;;;;;;;6.60;99.90;;;;;;5010569;28;20041;-67
2021/11/13 01:36:03;;;;;;;4.60;3.45;;;6.60;99.90;;;;;;5027279;28;19981;-68
2021/11/13 01:38:30;;;;;;;6.85;4.07;;;6.60;99.90;;;;;;5028041;28;20413;-68
2021/11/13 01:40:57;;;;;;;7.13;3.90;;;6.50;99.90;;;;;;5027813;28;20037;-67
2021/11/13 01:43:23;;;;;;;5.78;3.75;;;6.50;99.90;;;;;;5028232;28;20289;-68
2021/11/13 01:45:49;;;;;;;6.25;4.00;;;6.40;99.90;;;;;;5025904;28;20037;-68
2021/11/13 01:48:15;;;;;;;7.75;4.60;;;6.40;99.90;;;;;;5033024;28;20048;-67
2021/11/13 01:50:44;;;;;;;7.18;4.65;;;6.30;99.90;;;;;;5046934;28;20695;-68
2021/11/13 01:53:11;;;;;;;7.32;4.28;;;6.30;99.90;;;;;;5047768;28;20056;-67
2021/11/13 01:55:40;;;;;;;6.50;4.15;;;6.30;99.90;;;;;;5040506;28;20516;-68
2021/11/13 01:58:13;;;;;;;8.10;4.68;;;6.40;99.90;;;;;;5026796;28;20505;-68
2021/11/13 02:00:52;;;;;;;7.97;4.47;;;6.40;99.90;;;;;;5025832;28;20505;-68
2021/11/13 02:03:19;;;;;;;9.38;4.30;;;6.50;99.90;;;;;;5030925;28;20143;-68
2021/11/13 02:05:47;;;;;;;6.78;4.30;;;6.50;99.90;;;;;;5029861;28;20053;-68
2021/11/13 02:08:13;;;;;;;7.72;4.68;;;6.50;99.90;;;;;;5027348;28;20155;-67
2021/11/13 02:10:39;;;;;;;8.75;4.70;;;6.50;99.90;;;;;;5026601;28;20095;-67
2021/11/13 02:13:05;;;;;;;8.32;4.30;;;6.50;99.90;;;;;;5027282;28;20038;-68
2021/11/13 02:15:30;;;;;;;8.65;4.95;;;6.50;99.90;;;;;;5026577;28;20033;-67
2021/11/13 02:17:57;;;;;;;9.23;4.82;;;6.50;99.90;;;;;;5026603;28;20041;-67
2021/11/13 02:20:37;;;;;;;9.10;5.10;;;6.50;99.90;;;;;;5026718;28;20041;-67
2021/11/13 02:23:10;;;;;;;7.15;4.53;;;6.50;99.90;;;;;;5026918;28;20045;-68
2021/11/13 02:25:36;;;;;;;7.50;5.07;;;6.40;99.90;;;;;;5022859;28;20042;-68
2021/11/13 02:28:04;;;;;;;9.57;5.50;;;6.40;99.90;;;;;;5025979;28;20048;-68
2021/11/13 02:30:30;;;;;;;8.88;5.13;;;6.30;99.90;;;;;;5026252;28;20489;-68
2021/11/13 02:32:56;;;;;;;8.35;5.00;;;6.40;99.90;;;;;;5026104;28;20037;-68
2021/11/13 02:35:24;;;;;;;9.50;5.63;;;6.30;99.90;;;;;;5027217;28;20180;-68
2021/11/13 02:37:50;;;;;;;11.30;6.13;;;6.30;99.90;;;;;;5025928;28;20036;-66
2021/11/13 02:40:18;;;;;;;10.90;6.13;;;6.30;99.90;;;;;;5034070;28;20041;-66
2021/11/13 02:42:46;;;;;;;9.30;5.65;;;6.30;99.90;;;;;;5046871;28;20133;-66
2021/11/13 02:45:14;;;;;;;11.30;5.90;;;6.20;99.90;;;;;;5045916;28;20051;-66
2021/11/13 02:47:42;;;;;;;9.48;5.90;;;6.20;99.90;;;;;;5044751;28;20124;-66
2021/11/13 02:50:10;;;;;;;11.02;5.55;;;6.20;99.90;;;;;;5025796;28;20095;-66
2021/11/13 02:52:51;;;;;;;10.95;6.35;;;6.20;99.90;;;;;;5026205;28;20169;-66
2021/11/13 02:55:17;;;;;;;12.07;6.65;;;6.20;99.90;;;;;;5026896;28;20042;-66
2021/11/13 02:57:44;;;;;;;10.02;5.57;;;6.20;99.90;;;;;;5025590;28;20041;-66
2021/11/13 03:00:12;;;;;;;11.48;5.88;;;6.20;99.90;;;;;;5026107;28;20056;-66
2021/11/13 03:02:39;;;;;;;13.48;6.38;;;6.20;99.90;;;;;;5025867;28;20152;-66
2021/11/13 03:05:17;;;;;;;11.30;6.40;;;6.20;99.90;;;;;;5026491;28;20102;-65
2021/11/13 03:07:44;;;;;;;11.98;6.43;;;6.20;99.90;;;;;;5030183;28;20398;-66
2021/11/13 03:10:14;;;;;;;13.02;7.43;;;6.20;99.90;;;;;;5040406;28;20037;-66
2021/11/13 03:12:41;;;;;;;12.80;6.68;;;6.20;99.90;;;;;;5045643;28;20041;-66
2021/11/13 03:15:08;;;;;;;11.13;6.50;;;6.10;99.90;;;;;;5046261;28;20047;-66
2021/11/13 03:17:35;;;;;;;11.40;6.25;;;6.10;99.90;;;;;;5044300;28;20044;-66
2021/11/13 03:20:04;;;;;;;15.57;7.35;;;6.00;99.90;;;;;;5045718;28;20505;-66
2021/11/13 03:22:33;;;;;;;22.83;10.85;;;6.00;99.90;;;;;;5027958;28;20037;-66
2021/11/13 03:24:59;;;;;;;15.55;8.88;;;5.90;99.90;;;;;;5044349;28;20049;-66
2021/11/13 03:27:25;;;;;;;15.45;8.20;;;5.90;99.90;;;;;;5025562;28;20503;-66
2021/11/13 03:29:53;;;;;;;17.98;9.27;;;5.70;99.90;;;;;;5025636;28;20041;-66
2021/11/13 03:32:19;;;;;;;18.42;8.30;;;5.60;99.90;;;;;;5010568;28;20037;-66
2021/11/13 03:34:44;;;;;;;16.85;7.80;;;5.50;99.90;;;;;;5026161;28;20045;-66
2021/11/13 03:37:10;;;;;;;15.52;8.15;;;5.50;99.90;;;;;;5024870;28;20049;-66
2021/11/13 03:39:35;;;;;;;15.73;7.60;;;5.40;99.90;;;;;;5025335;28;20049;-66
2021/11/13 03:42:01;;;;;;;17.95;7.53;;;5.40;99.90;;;;;;5025612;28;20053;-66
2021/11/13 03:44:27;;;;;;;;;;;5.40;99.90;;;;;;5026434;28;20044;-66
2021/11/13 03:46:52;;;;;;;17.38;7.18;;;5.40;99.90;;;;;;5024276;28;19921;-66
2021/11/13 03:49:18;;;;;;;19.23;7.57;;;5.40;99.90;;;;;;5040023;28;20048;-66
2021/11/13 03:51:43;;;;;;;16.92;7.18;;;5.40;99.90;;;;;;5045634;28;20037;-67
2021/11/13 03:54:09;;;;;;;18.75;7.80;;;5.40;99.90;;;;;;5035165;28;20095;-66
2021/11/13 03:56:34;;;;;;;;;;;5.30;99.90;;;;;;5033799;28;20148;-66
2021/11/13 03:59:04;;;;;;;17.10;8.30;;;5.30;99.90;;;;;;5029507;28;19925;-66
2021/11/13 04:01:30;;;;;;;19.80;7.53;;;5.30;99.90;;;;;;5031811;28;20034;-67
2021/11/13 04:03:56;;;;;;;22.23;8.05;;;5.30;99.90;;;;;;5029299;28;20494;-67
2021/11/13 04:06:22;;;;;;;16.10;7.03;;;5.30;99.90;;;;;;5028925;28;20052;-66
2021/11/13 04:08:47;;;;;;;21.60;8.27;;;5.20;99.90;;;;;;5030338;28;20046;-66
2021/11/13 04:11:13;;;;;;;22.60;8.00;;;5.20;99.90;;;;;;5029599;28;20037;-66
2021/11/13 04:13:38;;;;;;;20.98;8.57;;;5.20;99.90;;;;;;5029935;28;20544;-67
2021/11/13 04:16:05;;;;;;;16.90;7.22;;;5.20;99.90;;;;;;5028610;28;20460;-66
2021/11/13 04:18:30;;;;;;;22.88;7.25;;;5.20;99.90;;;;;;5029604;28;20685;-66
2021/11/13 04:20:56;;;;;;;22.10;7.45;;;5.20;99.90;;;;;;5029491;28;20070;-66
2021/11/13 04:23:21;;;;;;;20.98;6.32;;;5.20;99.90;;;;;;5029637;28;20055;-66
2021/11/13 04:25:47;;;;;;;24.73;6.38;;;5.20;99.90;;;;;;5029249;28;20740;-67
2021/11/13 04:28:13;;;;;;;24.10;7.40;;;5.20;99.90;;;;;;5029111;28;20095;-66
2021/11/13 04:30:38;;;;;;;22.77;6.78;;;5.20;99.90;;;;;;5028992;28;20867;-66
2021/11/13 04:33:04;;;;;;;19.90;6.63;;;5.20;99.90;;;;;;5029250;28;20041;-66
2021/11/13 04:37:59;;;;;;;18.60;7.20;;;5.20;99.90;;;;;;5028911;28;20041;-66
2021/11/13 04:40:32;;;;;;;19.27;6.72;;;5.30;99.90;;;;;;5029054;28;20046;-66
2021/11/13 04:42:57;;;;;;;19.15;6.35;;;5.30;99.90;;;;;;5029813;28;20092;-67
2021/11/13 04:45:24;;;;;;;18.85;5.88;;;5.30;99.90;;;;;;5029118;28;20069;-66
2021/11/13 04:47:50;;;;;;;15.30;5.40;;;5.30;99.90;;;;;;5030527;28;20045;-66
2021/11/13 04:50:20;;;;;;;19.58;5.72;;;5.30;99.90;;;;;;5049408;28;20036;-66
2021/11/13 04:52:47;;;;;;;16.52;6.05;;;5.40;99.90;;;;;;5049135;28;20049;-67
2021/11/13 04:55:13;;;;;;;15.15;6.00;;;5.40;99.90;;;;;;5046005;28;20133;-66
2021/11/13 04:57:40;;;;;;;15.20;7.05;;;5.40;99.90;;;;;;5028539;28;20505;-66
2021/11/13 05:00:08;;;;;;;13.82;6.30;;;5.50;99.90;;;;;;5028361;28;20405;-66
2021/11/13 05:02:34;;;;;;;13.27;6.00;;;5.50;99.90;;;;;;5028116;28;20068;-66
2021/11/13 05:04:59;;;;;;;12.75;6.45;;;5.50;99.90;;;;;;5028387;28;20069;-66
2021/11/13 05:07:25;;;;;;;15.90;6.65;;;5.40;99.90;;;;;;5028086;28;20041;-66
2021/11/13 05:09:54;;;;;;;14.07;6.70;;;5.40;99.90;;;;;;5031615;28;20051;-66
2021/11/13 05:12:20;;;;;;;16.92;7.10;;;5.30;99.90;;;;;;5031525;28;20041;-66
2021/11/13 05:14:46;;;;;;;13.77;6.80;;;5.20;99.90;;;;;;5028539;28;20045;-67
2021/11/13 05:17:12;;;;;;;14.32;6.80;;;5.20;99.90;;;;;;5026601;28;20042;-67
2021/11/13 05:19:38;;;;;;;17.67;6.32;;;5.20;99.90;;;;;;5028309;28;20083;-67
2021/11/13 05:22:05;;;;;;;14.75;6.13;;;5.20;99.90;;;;;;5028230;28;20072;-66
2021/11/13 05:24:31;;;;;;;17.67;6.43;;;5.20;99.90;;;;;;5028233;28;20092;-66
2021/11/13 05:26:56;;;;;;;13.48;6.30;;;5.20;99.90;;;;;;5027023;28;20861;-66
2021/11/13 05:29:22;;;;;;;10.52;5.82;;;5.20;99.90;;;;;;5027299;28;20076;-66
2021/11/13 05:31:48;;;;;;;10.50;5.80;;;5.20;99.90;;;;;;5030147;28;20037;-66
2021/11/13 05:34:13;;;;;;;15.07;6.00;;;5.20;99.90;;;;;;5027719;28;20041;-66
2021/11/13 05:36:39;;;;;;;;;;;5.20;99.90;;;;;;5027549;28;20513;-66
2021/11/13 05:39:05;;;;;;;11.85;5.57;;;5.20;99.90;;;;;;5026971;28;19924;-66
2021/11/13 05:41:31;;;;;;;14.68;6.20;;;5.20;99.90;;;;;;5009682;28;20041;-67
2021/11/13 05:43:56;;;;;;;15.82;6.22;;;5.30;99.90;;;;;;5028108;28;20048;-67
2021/11/13 05:46:22;;;;;;;;;;;5.30;99.90;;;;;;5027007;28;20128;-67
2021/11/13 05:48:47;;;;;;;25.33;6.38;;;5.40;99.90;;;;;;5037078;28;20003;-66
2021/11/13 05:51:13;;;;;;;17.77;5.95;;;5.40;99.90;;;;;;5047511;28;20091;-67
2021/11/13 05:53:39;;;;;;;15.05;6.18;;;5.50;99.90;;;;;;5047175;28;20041;-67
2021/11/13 05:56:05;;;;;;;18.33;5.65;;;5.50;99.90;;;;;;5036017;28;20167;-66
2021/11/13 05:58:30;;;;;;;18.10;6.15;;;5.50;99.90;;;;;;5024663;28;20084;-66
2021/11/13 06:00:56;;;;;;;17.02;6.32;;;5.50;99.90;;;;;;5032531;28;20470;-66
2021/11/13 06:03:21;;;;;;;24.48;10.73;;;5.50;99.90;;;;;;5027077;28;20049;-67
2021/11/13 06:05:47;;;;;;;17.25;7.63;;;5.50;99.90;;;;;;5027219;28;20716;-65
2021/11/13 06:08:13;;;;;;;18.65;7.00;;;5.50;99.90;;;;;;5026299;28;20422;-66
2021/11/13 06:10:39;;;;;;;17.30;7.22;;;5.60;99.90;;;;;;5026946;28;20402;-65
2021/11/13 06:13:05;;;;;;;17.92;6.45;;;5.60;99.90;;;;;;5026421;28;20478;-65
2021/11/13 06:15:31;;;;;;;18.70;6.63;;;5.60;99.90;;;;;;5026877;28;20067;-66
2021/11/13 06:17:57;;;;;;;20.98;6.82;;;5.60;99.90;;;;;;5028403;28;20029;-65
2021/11/13 06:20:23;;;;;;;28.58;9.73;;;5.60;99.90;;;;;;5022813;28;20037;-66
2021/11/13 06:22:49;;;;;;;14.45;5.93;;;5.60;99.90;;;;;;5027556;28;20230;-65
2021/11/13 06:25:15;;;;;;;18.50;7.45;;;5.60;99.90;;;;;;5036669;23;20056;-66
2021/11/13 06:27:42;;;;;;;16.13;6.50;;;5.60;99.90;;;;;;5045501;28;20043;-67
2021/11/13 06:30:09;;;;;;;18.17;7.43;;;5.70;99.90;;;;;;5047016;28;20037;-67
2021/11/13 06:32:35;;;;;;;22.65;8.73;;;5.70;99.90;;;;;;5047041;28;20053;-65
2021/11/13 06:35:01;;;;;;;15.45;6.80;;;5.70;99.90;;;;;;5046571;28;20055;-65
2021/11/13 06:37:29;;;;;;;19.35;6.18;;;5.80;99.90;;;;;;5045693;28;20132;-64
2021/11/13 06:39:55;;;;;;;14.20;5.80;;;5.70;99.90;;;;;;5020963;28;20063;-64
2021/11/13 06:42:21;;;;;;;14.95;5.60;;;5.70;99.90;;;;;;5046897;28;20033;-64
2021/11/13 06:44:47;;;;;;;12.07;4.68;;;5.70;99.90;;;;;;5045815;28;20037;-64
2021/11/13 06:47:13;;;;;;;10.95;3.85;;;5.80;99.90;;;;;;5042202;28;20094;-64
2021/11/13 06:49:38;;;;;;;9.48;4.13;;;5.80;99.90;;;;;;5045017;28;20115;-63
2021/11/13 06:52:04;;;;;;;;;;;5.90;99.90;;;;;;5046361;28;20079;-68
2021/11/13 06:54:30;;;;;;;7.95;3.55;;;5.90;99.90;;;;;;5046605;28;20355;-65
2021/11/13 06:56:55;;;;;;;8.10;3.92;;;5.90;99.90;;;;;;5045507;28;20094;-68
2021/11/13 06:59:21;;;;;;;17.73;9.15;;;6.00;99.90;;;;;;5028972;28;20556;-65
2021/11/13 07:01:47;;;;;;;6.05;3.05;;;6.00;99.90;;;;;;5045650;28;20041;-65
2021/11/13 07:04:13;;;;;;;4.72;2.42;;;6.00;99.90;;;;;;5046790;28;20497;-64
2021/11/13 07:06:39;;;;;;;3.58;2.08;;;6.10;99.90;;;;;;5028227;28;20048;-65
2021/11/13 07:09:04;;;;;;;;;;;6.10;99.90;;;;;;5025232;28;20112;-62
2021/11/13 07:11:30;;;;;;;2.95;1.98;;;6.10;99.90;;;;;;5045310;28;19917;-63
2021/11/13 07:13:56;;;;;;;2.47;1.65;;;6.20;99.90;;;;;;5046380;28;20041;-63
2021/11/13 07:16:22;;;;;;;5.85;3.38;;;6.20;99.90;;;;;;5026822;28;20095;-63
2021/11/13 07:18:49;;;;;;;2.92;1.88;;;6.20;99.90;;;;;;5045385;28;20040;-63
2021/11/13 07:21:15;;;;;;;2.72;1.52;;;6.20;99.90;;;;;;5046023;28;20493;-63
2021/11/13 07:23:41;;;;;;;2.25;1.40;;;6.30;99.90;;;;;;5045878;28;20491;-63
2021/11/13 07:26:07;;;;;;;9.10;3.90;;;6.30;99.90;;;;;;5045183;28;20056;-63
2021/11/13 07:28:47;;;;;;;5.70;3.78;;;6.40;99.90;;;;;;5048122;28;20047;-63
2021/11/13 07:31:16;;;;;;;3.13;1.40;;;6.40;99.90;;;;;;5049286;28;20037;-63
2021/11/13 07:33:43;;;;;;;2.95;1.40;;;6.50;99.90;;;;;;5049913;28;20302;-64
2021/11/13 07:36:09;;;;;;;1.90;1.02;;;6.50;99.90;;;;;;5050570;28;20497;-63
2021/11/13 07:38:36;;;;;;;0.77;0.55;;;6.60;99.90;;;;;;5049659;28;20040;-63
2021/11/13 07:41:02;;;;;;;1.23;0.73;;;6.60;99.90;;;;;;5050949;28;20049;-64
2021/11/13 07:43:28;;;;;;;2.83;0.60;;;6.60;99.90;;;;;;5051359;28;20072;-63
2021/11/13 07:45:54;;;;;;;0.73;0.50;;;6.60;99.90;;;;;;5049121;28;20084;-64
2021/11/13 07:48:20;;;;;;;4.43;0.50;;;6.60;99.90;;;;;;5050279;28;20040;-63
2021/11/13 07:50:45;;;;;;;;;;;6.60;99.90;;;;;;5049899;28;20068;-64
2021/11/13 07:53:11;;;;;;;1.08;0.47;;;6.60;99.90;;;;;;5049935;28;19970;-63
2021/11/13 07:55:38;;;;;;;0.68;0.40;;;6.60;99.90;;;;;;5049083;28;20041;-63
2021/11/13 07:58:05;;;;;;;0.70;0.40;;;6.60;99.90;;;;;;5043322;28;20071;-63
2021/11/13 08:00:31;;;;;;;0.73;0.50;;;6.60;99.90;;;;;;5048603;28;20037;-63
2021/11/13 08:02:57;;;;;;;0.38;0.35;;;6.60;99.90;;;;;;5048926;28;20041;-63
2021/11/13 08:05:23;;;;;;;0.40;0.30;;;6.60;99.90;;;;;;5049651;28;20045;-63
2021/11/13 08:07:50;;;;;;;0.57;0.30;;;6.60;99.90;;;;;;5048039;28;20045;-63
2021/11/13 08:10:17;;;;;;;0.47;0.40;;;6.60;99.90;;;;;;5048426;28;20047;-62
2021/11/13 08:12:44;;;;;;;0.20;0.20;;;6.70;99.90;;;;;;5049153;28;20102;-63
2021/11/13 08:15:10;;;;;;;0.35;0.30;;;6.70;99.90;;;;;;5048077;28;20052;-63
2021/11/13 08:17:36;;;;;;;18.85;10.85;;;6.70;99.90;;;;;;5048285;28;20084;-63
2021/11/13 08:20:05;;;;;;;1.42;0.80;;;6.80;99.90;;;;;;5047369;28;20524;-64
2021/11/13 08:22:37;;;;;;;5.07;3.53;;;6.80;99.90;;;;;;5051337;28;20044;-64
2021/11/13 08:25:07;;;;;;;2.08;0.95;;;6.80;99.90;;;;;;5032085;28;20128;-64
2021/11/13 08:27:33;;;;;;;3.42;1.38;;;6.80;99.90;;;;;;5048667;28;20112;-64
2021/11/13 08:29:59;;;;;;;3.67;1.80;;;6.70;99.90;;;;;;5049003;28;20567;-64
2021/11/13 08:32:25;;;;;;;1.55;0.70;;;6.70;99.90;;;;;;5048914;28;20647;-64
2021/11/13 08:34:51;;;;;;;;;;;6.70;99.90;;;;;;5055027;28;20037;-63
2021/11/13 08:37:17;;;;;;;3.55;1.67;;;6.80;99.90;;;;;;5055935;28;19995;-63
2021/11/13 08:39:43;;;;;;;;;;;6.80;99.90;;;;;;5059043;28;20048;-64
2021/11/13 08:42:14;;;;;;;2.60;0.80;;;6.80;99.90;;;;;;5061235;28;20000;-64
2021/11/13 08:44:45;;;;;;;2.20;1.13;;;6.80;99.90;;;;;;5059323;28;20057;-63
2021/11/13 08:47:13;;;;;;;5.10;2.45;;;6.80;99.90;;;;;;5032301;28;20044;-64
2021/11/13 08:49:42;;;;;;;5.28;2.85;;;6.90;99.90;;;;;;5061080;28;20037;-63
2021/11/13 08:52:10;;;;;;;1.77;0.93;;;6.90;99.90;;;;;;5057341;28;20111;-63
2021/11/13 08:54:36;;;;;;;1.73;0.80;;;6.80;99.90;;;;;;5049087;28;20130;-64
2021/11/13 08:57:03;;;;;;;1.30;0.90;;;6.70;99.90;;;;;;5047476;28;20048;-63
2021/11/13 08:59:29;;;;;;;2.28;0.95;;;6.70;99.90;;;;;;5048959;28;20037;-63
2021/11/13 09:01:55;;;;;;;1.33;0.70;;;6.70;99.90;;;;;;5048030;28;20107;-63
2021/11/13 09:04:21;;;;;;;1.45;0.75;;;6.70;99.90;;;;;;5028022;28;20033;-63
2021/11/13 09:06:47;;;;;;;0.80;0.70;;;6.60;99.90;;;;;;5028508;28;20630;-63
2021/11/13 09:09:13;;;;;;;0.98;0.60;;;6.60;99.90;;;;;;5028353;28;20041;-63
2021/11/13 09:11:41;;;;;;;1.83;1.00;;;6.40;99.90;;;;;;5035323;28;20179;-64
2021/11/13 09:14:11;;;;;;;1.90;1.00;;;6.40;99.90;;;;;;5048546;28;20041;-63
2021/11/13 09:16:37;;;;;;;1.40;1.10;;;6.40;99.90;;;;;;5047277;28;20123;-63
2021/11/13 09:19:03;;;;;;;1.42;0.80;;;6.40;99.90;;;;;;5048786;28;20589;-63
2021/11/13 09:21:31;;;;;;;1.20;0.50;;;6.40;99.90;;;;;;5048872;28;20037;-63
2021/11/13 09:23:57;;;;;;;1.50;0.90;;;6.40;99.90;;;;;;5031298;28;20033;-64
2021/11/13 09:26:23;;;;;;;1.17;0.50;;;6.50;99.90;;;;;;5047533;28;20532;-63
2021/11/13 09:28:48;;;;;;;;;;;6.60;99.90;;;;;;5049104;28;20072;-63
2021/11/13 09:31:15;;;;;;;1.95;0.70;;;6.60;99.90;;;;;;5047295;28;19917;-63
2021/11/13 09:33:40;;;;;;;0.70;0.50;;;6.60;99.90;;;;;;5047625;28;20528;-63
2021/11/13 09:36:06;;;;;;;0.65;0.60;;;6.60;99.90;;;;;;5047642;28;20143;-63
2021/11/13 09:38:40;;;;;;;1.45;0.77;;;6.60;99.90;;;;;;5047910;28;20590;-63
2021/11/13 09:41:07;;;;;;;0.68;0.55;;;6.70;99.90;;;;;;5029635;28;20052;-63
2021/11/13 09:43:33;;;;;;;1.35;0.60;;;6.60;99.90;;;;;;5046547;28;20071;-63
2021/11/13 09:46:02;;;;;;;1.23;0.80;;;6.60;99.90;;;;;;5044993;28;20456;-63
2021/11/13 09:48:28;;;;;;;0.70;0.50;;;6.60;99.90;;;;;;5046089;28;20743;-63
2021/11/13 09:50:54;;;;;;;2.60;1.10;;;6.60;99.90;;;;;;5045754;28;20182;-63
2021/11/13 09:53:22;;;;;;;1.23;0.80;;;6.60;99.90;;;;;;5046993;28;20616;-64
2021/11/13 09:55:48;;;;;;;1.40;0.73;;;6.60;99.90;;;;;;5046361;28;20045;-63
2021/11/13 09:58:15;;;;;;;0.60;0.55;;;6.60;99.90;;;;;;5047210;28;20051;-63
2021/11/13 10:00:44;;;;;;;1.55;0.80;;;6.60;99.90;;;;;;5047719;28;20159;-63
2021/11/13 10:03:15;;;;;;;1.30;0.80;;;6.70;99.90;;;;;;5047268;28;20045;-64
2021/11/13 10:05:41;;;;;;;1.45;0.68;;;6.80;99.90;;;;;;5047300;28;20167;-64
2021/11/13 10:08:07;;;;;;;;;;;6.90;99.90;;;;;;5047603;28;20498;-63
2021/11/13 10:10:36;;;;;;;3.53;0.68;;;6.90;99.90;;;;;;5047082;28;19925;-63
2021/11/13 10:13:03;;;;;;;6.22;2.95;;;7.00;99.90;;;;;;5047819;28;20041;-64
2021/11/13 10:15:32;;;;;;;20.23;9.32;;;7.10;99.90;;;;;;5046834;28;20040;-64
2021/11/13 10:18:07;;;;;;;1.27;0.98;;;7.10;99.90;;;;;;5047310;28;20480;-63
2021/11/13 10:20:35;;;;;;;1.13;0.82;;;7.20;99.90;;;;;;5047074;28;20033;-64
2021/11/13 10:23:31;;;;;;;0.70;0.43;;;7.30;99.90;;;;;;5047718;28;20041;-63
2021/11/13 10:26:06;;;;;;;1.00;0.60;;;7.30;99.90;;;;;;5046870;28;20084;-64
2021/11/13 10:28:41;;;;;;;1.73;0.50;;;7.40;99.90;;;;;;5046855;28;20055;-64
2021/11/13 10:31:32;;;;;;;0.63;0.40;;;7.40;99.90;;;;;;5047313;28;20037;-64
2021/11/13 10:34:07;;;;;;;0.60;0.50;;;7.50;99.90;;;;;;5047741;28;20467;-64
2021/11/13 10:36:38;;;;;;;0.63;0.40;;;7.60;99.90;;;;;;5047169;28;20703;-64
2021/11/13 10:39:06;;;;;;;0.60;0.40;;;7.60;99.90;;;;;;5046909;28;20047;-64
2021/11/13 10:42:07;;;;;;;0.98;0.47;;;7.70;99.90;;;;;;5047790;28;20131;-64
2021/11/13 10:44:36;;;;;;;2.65;0.63;;;7.60;99.90;;;;;;5043399;28;20631;-64
2021/11/13 10:47:23;;;;;;;2.28;1.35;;;7.50;99.90;;;;;;5046713;28;20060;-64
2021/11/13 10:49:54;;;;;;;0.63;0.45;;;7.50;99.90;;;;;;5028687;28;20040;-63
2021/11/13 10:52:23;;;;;;;1.00;0.65;;;7.40;99.90;;;;;;5047976;28;20037;-63
2021/11/13 10:54:51;;;;;;;5.10;2.72;;;7.40;99.90;;;;;;5047986;28;20041;-63
2021/11/13 10:57:43;;;;;;;1.23;0.82;;;7.40;99.90;;;;;;5028705;28;20115;-64
2021/11/13 11:00:17;;;;;;;0.75;0.50;;;7.40;99.90;;;;;;5022537;28;20780;-63
2021/11/13 11:03:05;;;;;;;0.85;0.50;;;7.30;99.90;;;;;;5032317;28;20045;-63
2021/11/13 11:05:49;;;;;;;0.55;0.45;;;7.30;99.90;;;;;;5045074;28;20421;-63
2021/11/13 11:08:33;;;;;;;1.27;0.68;;;7.30;99.90;;;;;;5046329;28;20044;-63
2021/11/13 11:11:23;;;;;;;1.20;0.70;;;7.40;99.90;;;;;;5047364;28;20419;-63
2021/11/13 11:13:54;;;;;;;;;;;7.40;99.90;;;;;;5047762;28;20041;-63
2021/11/13 11:16:37;;;;;;;1.17;0.50;;;7.40;99.90;;;;;;5045709;28;20052;-64
2021/11/13 11:19:07;;;;;;;1.85;0.75;;;7.50;99.90;;;;;;5046274;28;20463;-63
2021/11/13 11:21:51;;;;;;;1.10;0.50;;;7.50;99.90;;;;;;5046912;28;20055;-63
2021/11/13 11:24:30;;;;;;;0.77;0.63;;;7.70;99.90;;;;;;5047443;28;20043;-63
2021/11/13 11:27:09;;;;;;;0.70;0.63;;;7.80;99.90;;;;;;5046324;28;20048;-64
2021/11/13 11:29:54;;;;;;;1.05;0.60;;;8.10;99.90;;;;;;5047394;28;20091;-64
2021/11/13 11:32:33;;;;;;;0.68;0.50;;;8.30;99.90;;;;;;5047007;28;20052;-64
2021/11/13 11:35:10;;;;;;;6.05;2.58;;;8.20;99.90;;;;;;5046834;28;20037;-64
2021/11/13 11:37:44;;;;;;;2.80;1.35;;;8.20;99.90;;;;;;5028650;28;20409;-64
2021/11/13 11:40:15;;;;;;;1.55;0.95;;;8.20;99.90;;;;;;5046770;28;20493;-64
2021/11/13 11:42:50;;;;;;;5.88;3.20;;;8.30;99.90;;;;;;5047355;28;20037;-63
2021/11/13 11:45:25;;;;;;;2.60;1.15;;;8.30;99.90;;;;;;5035377;28;20037;-63
2021/11/13 11:47:56;;;;;;;1.00;0.90;;;8.40;99.90;;;;;;5031934;28;20064;-63
2021/11/13 11:50:33;;;;;;;1.33;0.85;;;8.50;99.90;;;;;;5045310;28;20037;-63
2021/11/13 11:53:10;;;;;;;7.28;3.70;;;8.60;99.90;;;;;;5047280;28;20037;-63
2021/11/13 11:55:40;;;;;;;6.47;3.22;;;8.60;99.90;;;;;;5046836;28;20041;-64
2021/11/13 11:58:12;;;;;;;12.25;6.63;;;8.60;99.90;;;;;;5046147;28;20056;-66
2021/11/13 12:00:39;;;;;;;1.90;1.55;;;8.70;99.90;;;;;;5045708;28;20124;-63
2021/11/13 12:03:06;;;;;;;4.82;2.20;;;8.80;99.90;;;;;;5047010;28;20112;-63
2021/11/13 12:05:39;;;;;;;6.75;4.13;;;8.80;99.90;;;;;;5046145;28;20041;-63
2021/11/13 12:08:33;;;;;;;1.90;1.25;;;9.00;99.90;;;;;;5046750;28;20288;-63
2021/11/13 12:11:21;;;;;;;1.63;0.98;;;9.00;99.90;;;;;;5047191;28;20730;-62
2021/11/13 12:13:47;;;;;;;1.73;1.05;;;8.90;99.90;;;;;;5048512;28;20685;-63
2021/11/13 12:16:21;;;;;;;;;;;8.80;99.90;;;;;;5039281;28;20049;-64
2021/11/13 12:18:49;;;;;;;1.00;0.75;;;8.70;99.90;;;;;;5048873;28;19971;-63
2021/11/13 12:21:18;;;;;;;1.27;1.00;;;8.60;99.90;;;;;;5050296;28;20045;-63
2021/11/13 12:23:48;;;;;;;0.95;0.70;;;8.60;99.90;;;;;;5050367;28;20037;-63
2021/11/13 12:26:35;;;;;;;1.35;0.80;;;8.60;99.90;;;;;;5050233;28;20048;-63
2021/11/13 12:29:13;;;;;;;;;;;8.60;99.90;;;;;;5043804;28;20138;-63
2021/11/13 12:31:44;;;;;;;3.35;0.80;;;8.50;99.90;;;;;;5026646;28;20015;-63
2021/11/13 12:34:16;;;;;;;0.82;0.70;;;8.50;99.90;;;;;;5046772;28;20040;-66
2021/11/13 12:36:57;;;;;;;0.77;0.57;;;8.50;99.90;;;;;;5049473;28;20053;-63
2021/11/13 12:39:29;;;;;;;1.10;0.75;;;8.50;99.90;;;;;;5049970;28;20444;-65
2021/11/13 12:42:07;;;;;;;1.25;0.77;;;8.40;99.90;;;;;;5050051;28;20516;-63
2021/11/13 12:44:41;;;;;;;1.75;0.77;;;8.40;99.90;;;;;;5050203;28;20489;-64
2021/11/13 12:47:36;;;;;;;1.13;0.90;;;8.40;99.90;;;;;;5048086;28;20128;-64
2021/11/13 12:50:28;;;;;;;1.20;0.88;;;8.30;99.90;;;;;;5028830;28;20057;-64
2021/11/13 12:53:00;;;;;;;1.40;0.85;;;8.20;99.90;;;;;;5029105;28;20046;-63
2021/11/13 12:55:32;;;;;;;1.73;0.57;;;8.30;99.90;;;;;;5034288;28;20052;-63
2021/11/13 12:58:09;;;;;;;1.13;0.80;;;8.30;99.90;;;;;;5042688;28;20090;-64
2021/11/13 13:00:42;;;;;;;1.15;0.70;;;8.30;99.90;;;;;;5048412;28;20087;-64
2021/11/13 13:03:22;;;;;;;1.45;0.75;;;8.30;99.90;;;;;;5050019;28;20044;-64
2021/11/13 13:05:50;;;;;;;0.98;0.63;;;8.30;99.90;;;;;;5048675;28;20090;-64
2021/11/13 13:08:21;;;;;;;1.20;0.98;;;8.40;99.90;;;;;;5049009;28;20132;-63